Aviation Digital Data Service (ADDS)

Output produced by METARs form (1855 UTC 19 September 2017)
found at http://www.aviationweather.gov/adds/metars/
 
OJAQ 191800Z 19006KT CAVOK 31/16 Q1008 NOSIG
TAF OJAQ 191646Z 1918/2024 36014KT 7000 NSC
       
OJAM 191900Z 33008KT 5000 HZ NSC 23/17 Q1014 NOSIG
TAF OJAM 191646Z 1918/2024 29010KT 5000 HZ NSC 
     TEMPO 2001/2005 VRB02KT 3000 BR
       
OJAI 191900Z 32006KT 7000 NSC 24/17 Q1015 NOSIG
TAF OJAI 191646Z 1918/2024 30012KT 7000 NSC 
     TEMPO 2001/2005 VRB02KT 4000 BR
       
OJAM 191900Z 33008KT 5000 HZ NSC 23/17 Q1014 NOSIG
TAF OJAM 191646Z 1918/2024 29010KT 5000 HZ NSC 
     TEMPO 2001/2005 VRB02KT 3000 BR
       
OJAQ 191800Z 19006KT CAVOK 31/16 Q1008 NOSIG
TAF OJAQ 191646Z 1918/2024 36014KT 7000 NSC
       
OJAI 191900Z 32006KT 7000 NSC 24/17 Q1015 NOSIG
TAF OJAI 191646Z 1918/2024 30012KT 7000 NSC 
     TEMPO 2001/2005 VRB02KT 4000 BR